Tiempo atmosférico en la estación meteorológica de Bañobárez, Salamanca (748 m.)



Fecha
DESCASC
Temp. máxima en grados centígrados (hora)
DESCASC
Temp. mínima en grados centígrados (hora)
DESCASC
Temp. media en grados centígrados
DESCASC
Racha de viento máxima en m/sg (hora)
DESCASC
Velocidad máxima media en intervalos de 10 minutos(hora)
DESCASC
Precipitaciones diarias en mm
DESCASC
Precipitaciones de 00:00 a 06:00 en mm
DESCASC
Precipitaciones de 06:00 a 12:00 en mm
DESCASC
Precipitaciones de 12:00 a 18:00 en mm
DESCASC
Precipitaciones de 18:00 a 24:00 en mm
DESCASC
15-08-2019 32 (17:40) 12.7 (07:40) 22.3 7.22 (19:10) 4.44 (19:10) 0 0 0 0 0
14-08-2019 30.5 (18:10) 10.1 (00:00) 20.3 8.06 (19:00) 4.44 (19:00) 0 0 0 0 0
13-08-2019 27.2 (19:10) 10.7 (00:00) 19 7.22 (12:40) 4.44 (08:50) 0 0 0 0 0
12-08-2019 23.4 (18:30) 5.7 (00:00) 14.5 10.83 (12:50) 5 (13:40) 0 0 0 0 0
11-08-2019 22.8 (17:10) 11.7 (00:00) 17.2 13.33 (16:40) 6.11 (19:30) 1.2 1.2 0 0 0
10-08-2019 25.7 (18:00) 11.4 (00:00) 18.6 7.78 (21:30) 5 (21:30) 0 0 0 0 0
09-08-2019 24.5 (17:40) 15.3 (00:00) 19.9 11.94 (07:20) 6.94 (07:30) 0.6 0 0.6 0 0
08-08-2019 28.3 (17:30) 19.1 (00:00) 23.7 13.61 (17:40) 8.06 (17:00) 0 0 0 0 0
07-08-2019 25.6 (19:40) 15.4 (00:00) 20.5 8.89 (17:20) 4.44 (20:50) 0 0 0 0 0
06-08-2019 30.2 (16:50) 13.2 (00:00) 21.7 9.72 (17:40) 6.11 (18:40) 0 0 0 0 0
05-08-2019 31.2 (17:50) 11.4 (00:00) 21.3 7.78 (17:50) 4.72 (20:30) 0 0 0 0 0
04-08-2019 31.6 (18:10) 13.6 (00:00) 22.6 9.17 (17:10) 5.28 (19:30) 0 0 0 0 0
03-08-2019 32.5 (17:50) 12.9 (00:00) 22.7 9.17 (20:00) 5.56 (20:20) 0 0 0 0 0
02-08-2019 31.7 (19:00) 10 (00:00) 20.9 5.83 (18:30) 3.61 (18:30) 0 0 0 0 0
01-08-2019 30.5 (18:30) 10.6 (00:00) 20.6 11.11 (17:20) 5.28 (20:50) 0 0 0 0 0
31-07-2019 27.5 (16:50) 11.3 (00:00) 19.4 7.78 (12:00) 5 (18:00) 0 0 0 0 0
30-07-2019 25.6 (19:30) 7.5 (00:00) 16.6 9.17 (20:20) 5.28 (01:10) 0 0 0 0 0
29-07-2019 23.9 (17:20) 10.2 (00:00) 17 10.56 (18:50) 6.39 (16:20) 0 0 0 0 0
28-07-2019 28.2 (19:10) 12.2 (00:00) 20.2 7.78 (23:00) 5 (23:00) 0 0 0 0 0
27-07-2019 24.1 (19:10) 12.1 (00:00) 18.1 9.17 (12:50) 5.83 (13:20) 1.4 0 0.6 0.8 0
26-07-2019 23.8 (17:00) 11.2 (00:00) 17.5 10.83 (16:50) 6.39 (17:50) 0 0 0 0 0
25-07-2019 30 (16:40) 12.4 (00:00) 21.2 11.11 (14:00) 7.22 (18:10) 0 0 0 0 0
24-07-2019 33.6 (18:10) 16.3 (00:00) 24.9 11.11 (17:50) 6.11 (14:40) 0 0 0 0 0
23-07-2019 32.9 (18:00) 19.1 (00:00) 26 11.94 (04:30) 6.39 (04:30) 3.4 3.2 0.2 0 0
22-07-2019 37.2 (18:20) 16.2 (00:00) 26.7 8.89 (18:50) 5 (18:50) 0 0 0 0 0
21-07-2019 34.4 (18:00) 13.4 (00:00) 23.9 6.94 (17:50) 4.17 (17:50) 0 0 0 0 0
20-07-2019 32 (19:20) 12.1 (00:00) 22.1 8.89 (20:10) 5 (20:40) 0 0 0 0 0
19-07-2019 34.2 (18:40) 13.5 (00:00) 23.9 9.17 (20:50) 5.83 (21:10) 0 0 0 0 0
18-07-2019 31.6 (18:40) 12.9 (00:00) 22.3 7.5 (14:10) 3.89 (18:50) 0 0 0 0 0

Gráficas

Temp. máximas Temp. mínimas Temp. medias Precipitaciones Rachas de viento máximas Velocidades máximas media en intervalos de 10 minutos

Datos horarios

Fecha y hora oficial Temperatura (ºC) Velocidad del viento (km/h) Dirección del viento Racha (km/h) Dirección de racha Precipitación (mm) Presión (hPa) Tendencia (hPa) Humedad (%)
2019-08-16 23:00:00 22.4 8 Oeste 15 Noroeste 0 -- -- 42
2019-08-16 22:00:00 24.7 10 Noroeste 23 Noroeste 0 -- -- 37
2019-08-16 21:00:00 28.5 17 Noroeste 30 Noroeste 0 -- -- 34
2019-08-16 20:00:00 31.4 17 Noroeste 29 Noroeste 0 -- -- 26
2019-08-16 19:00:00 32.4 15 Noroeste 28 Oeste 0 -- -- 24
2019-08-16 18:00:00 32.3 12 Noroeste 43 Oeste 0 -- -- 25
2019-08-16 17:00:00 32.1 12 Noroeste 28 Oeste 0 -- -- 23
2019-08-16 16:00:00 31.7 12 Noroeste 24 Oeste 0 -- -- 22
2019-08-16 15:00:00 30.4 9 Oeste 22 Oeste 0 -- -- 31
2019-08-16 14:00:00 28.6 8 Oeste 19 Oeste 0 -- -- 35
2019-08-16 13:00:00 27.1 8 Noroeste 17 Oeste 0 -- -- 44
2019-08-16 12:00:00 25.5 8 Noroeste 14 Norte 0 -- -- 51
2019-08-16 11:00:00 23.1 4 Norte 9 Noroeste 0 -- -- 58
2019-08-16 10:00:00 20.8 6 Noroeste 13 Noroeste 0 -- -- 67
2019-08-16 09:00:00 18 4 Noroeste 6 Noroeste 0 -- -- 82
2019-08-16 08:00:00 13.7 0 Calma 3 Sudeste 0 -- -- 90
2019-08-16 07:00:00 14.3 0 Calma 4 Oeste 0 -- -- 89
2019-08-16 06:00:00 14.3 0 Calma 3 Oeste 0 -- -- 85
2019-08-16 05:00:00 15.6 0 Calma 6 Oeste 0 -- -- 81
2019-08-16 04:00:00 17.2 3 Oeste 8 Oeste 0 -- -- 75
2019-08-16 03:00:00 17 0 Calma 6 Noroeste 0 -- -- 72
2019-08-16 02:00:00 18.4 4 Noroeste 6 Noroeste 0 -- -- 68
2019-08-16 01:00:00 20.9 3 Noroeste 15 Noroeste 0 -- -- 59
2019-08-16 00:00:00 23.4 11 Noroeste 21 Noroeste 0 -- -- 54
2019-08-15 23:00:00 24.8 13 Noroeste 20 Noroeste 0 -- -- 50
2019-08-15 22:00:00 26.3 12 Noroeste 18 Noroeste 0 -- -- 45
2019-08-15 21:00:00 29.5 8 Noroeste 21 Noroeste 0 -- -- 34
2019-08-15 20:00:00 31 8 Noroeste 26 Noroeste 0 -- -- 32
2019-08-15 19:00:00 31.6 12 Noroeste 23 Noroeste 0 -- -- 29
2019-08-15 18:00:00 31.9 11 Noroeste 23 Noroeste 0 -- -- 28
2019-08-15 17:00:00 31.5 5 Norte 21 Noroeste 0 -- -- 28
2019-08-15 16:00:00 31.3 7 Noroeste 17 Norte 0 -- -- 28
2019-08-15 15:00:00 30 8 Noroeste 17 Norte 0 -- -- 29
2019-08-15 14:00:00 28.7 7 Este 19 Nordeste 0 -- -- 32
2019-08-15 13:00:00 27.9 9 Nordeste 22 Sudeste 0 -- -- 32
2019-08-15 12:00:00 26 9 Nordeste 21 Este 0 -- -- 34
2019-08-15 11:00:00 23.6 11 Nordeste 18 Nordeste 0 -- -- 49
2019-08-15 10:00:00 20.7 6 Nordeste 11 Nordeste 0 -- -- 72
2019-08-15 09:00:00 17.1 3 Norte 5 Nordeste 0 -- -- 86
2019-08-15 08:00:00 13 0 Calma 5 Este 0 -- -- 92
2019-08-15 07:00:00 13.4 3 Este 7 Este 0 -- -- 90
2019-08-15 06:00:00 14 3 Este 6 Noroeste 0 -- -- 86
2019-08-15 05:00:00 15.8 0 Calma 10 Noroeste 0 -- -- 81
2019-08-15 04:00:00 17.4 5 Noroeste 12 Noroeste 0 -- -- 81
2019-08-15 03:00:00 18.6 8 Noroeste 16 Oeste 0 -- -- 78
2019-08-15 02:00:00 19.4 7 Noroeste 12 Noroeste 0 -- -- 74
2019-08-15 01:00:00 20.7 6 Noroeste 14 Noroeste 0 -- -- 70
2019-08-15 00:00:00 22.3 8 Noroeste 22 Noroeste 0 -- -- 63
2019-08-14 23:00:00 23.7 13 Noroeste 21 Norte 0 -- -- 59
2019-08-14 22:00:00 25.4 13 Noroeste 27 Noroeste 0 -- -- 52
2019-08-14 21:00:00 28.4 12 Noroeste 23 Noroeste 0 -- -- 40
2019-08-14 20:00:00 29.8 10 Noroeste 27 Noroeste 0 -- -- 35
2019-08-14 19:00:00 30.1 16 Noroeste 29 Noroeste 0 -- -- 33
2019-08-14 18:00:00 30.2 10 Noroeste 28 Noroeste 0 -- -- 33
2019-08-14 17:00:00 29.7 9 Norte 23 Noroeste 0 -- -- 33
2019-08-14 16:00:00 29.3 13 Noroeste 29 Norte 0 -- -- 32
2019-08-14 15:00:00 28.5 12 Noroeste 25 Noroeste 0 -- -- 31
2019-08-14 14:00:00 27.3 8 Norte 19 Noroeste 0 -- -- 33
2019-08-14 13:00:00 26.2 7 Noroeste 19 Sudoeste 0 -- -- 34
2019-08-14 12:00:00 24.2 6 Noroeste 12 Norte 0 -- -- 36
2019-08-14 11:00:00 21.9 5 Norte 11 Norte 0 -- -- 44
2019-08-14 10:00:00 19.3 3 Nordeste 7 Noroeste 0 -- -- 52
2019-08-14 09:00:00 15.7 2 Sur 8 Sur 0 -- -- 60
2019-08-14 08:00:00 10.7 6 Sur 9 Sur 0 -- -- 76
2019-08-14 07:00:00 10.1 2 Sudeste 3 Sur 0 -- -- 76
2019-08-14 06:00:00 10.7 0 Calma 2 Oeste 0 -- -- 73
2019-08-14 05:00:00 11 0 Calma 4 Sur 0 -- -- 70
2019-08-14 04:00:00 11.9 0 Calma 6 Este 0 -- -- 64
2019-08-14 03:00:00 12.6 5 Este 8 Este 0 -- -- 62
2019-08-14 02:00:00 12.8 0 Calma 9 Oeste 0 -- -- 60
2019-08-14 01:00:00 13.8 0 Calma 4 Norte 0 -- -- 51
2019-08-14 00:00:00 14.8 2 Norte 6 Oeste 0 -- -- 46
2019-08-13 23:00:00 15.9 0 Calma 2 Sudeste 0 -- -- 43
2019-08-13 22:00:00 20.3 0 Calma 12 Noroeste 0 -- -- 33
2019-08-13 21:00:00 25.2 10 Noroeste 18 Noroeste 0 -- -- 27
2019-08-13 20:00:00 26.7 10 Noroeste 22 Noroeste 0 -- -- 23
2019-08-13 19:00:00 26.9 8 Norte 21 Norte 0 -- -- 24
2019-08-13 18:00:00 26.3 10 Norte 19 Norte 0 -- -- 25
2019-08-13 17:00:00 26.5 6 Sur 22 Norte 0 -- -- 24
2019-08-13 16:00:00 25.7 8 Nordeste 22 Nordeste 0 -- -- 26
2019-08-13 15:00:00 24.7 6 Norte 19 Este 0 -- -- 27
2019-08-13 14:00:00 23.6 10 Este 26 Este 0 -- -- 33
2019-08-13 13:00:00 22.3 11 Nordeste 26 Este 0 -- -- 35
2019-08-13 12:00:00 20.1 12 Nordeste 20 Nordeste 0 -- -- 43
2019-08-13 11:00:00 17.7 12 Nordeste 23 Este 0 -- -- 52
2019-08-13 10:00:00 15.3 12 Nordeste 26 Este 0 -- -- 60
2019-08-13 09:00:00 12.9 14 Este 25 Nordeste 0 -- -- 70
2019-08-13 08:00:00 11.3 15 Este 26 Este 0 -- -- 74
2019-08-13 07:00:00 11.1 12 Este 19 Nordeste 0 -- -- 74
2019-08-13 06:00:00 10.9 9 Nordeste 13 Nordeste 0 -- -- 70
2019-08-13 05:00:00 11.5 9 Nordeste 15 Nordeste 0 -- -- 63
2019-08-13 04:00:00 12.4 8 Nordeste 14 Nordeste 0 -- -- 55
2019-08-13 03:00:00 12.8 6 Nordeste 10 Este 0 -- -- 52
2019-08-13 02:00:00 14.1 6 Nordeste 12 Nordeste 0 -- -- 45
2019-08-13 01:00:00 13.2 4 Norte 9 Este 0 -- -- 46
2019-08-13 00:00:00 16.6 6 Nordeste 13 Nordeste 0 -- -- 38
2019-08-12 23:00:00 17 8 Nordeste 11 Nordeste 0 -- -- 39
2019-08-12 22:00:00 18.8 3 Nordeste 12 Nordeste 0 -- -- 34
2019-08-12 21:00:00 21.4 7 Nordeste 19 Nordeste 0 -- -- 28
2019-08-12 20:00:00 22.1 12 Nordeste 23 Norte 0 -- -- 28
2019-08-12 19:00:00 22.5 9 Norte 31 Nordeste 0 -- -- 29
2019-08-12 18:00:00 23 15 Nordeste 28 Nordeste 0 -- -- 29
2019-08-12 17:00:00 22.7 10 Norte 29 Nordeste 0 -- -- 31
2019-08-12 16:00:00 22 13 Nordeste 31 Norte 0 -- -- 33
2019-08-12 15:00:00 20.7 16 Nordeste 33 Nordeste 0 -- -- 37
2019-08-12 14:00:00 19.8 12 Nordeste 31 Este 0 -- -- 39
2019-08-12 13:00:00 19 17 Nordeste 39 Norte 0 -- -- 41
2019-08-12 12:00:00 17.3 16 Nordeste 35 Nordeste 0 -- -- 47
2019-08-12 11:00:00 15.5 15 Nordeste 26 Nordeste 0 -- -- 56
2019-08-12 10:00:00 13.6 9 Nordeste 15 Norte 0 -- -- 69
2019-08-12 09:00:00 10.7 6 Norte 11 Norte 0 -- -- 85
2019-08-12 08:00:00 6.2 2 Nordeste 4 Norte 0 -- -- 94
2019-08-12 07:00:00 6 2 Norte 3 Noroeste 0 -- -- 92
2019-08-12 06:00:00 6.6 0 Calma 7 Este 0 -- -- 89
2019-08-12 05:00:00 7.9 3 Este 6 Nordeste 0 -- -- 90
2019-08-12 04:00:00 7.7 0 Calma 6 Sudeste 0 -- -- 85
2019-08-12 03:00:00 9.1 3 Este 4 Este 0 -- -- 83
2019-08-12 02:00:00 11.8 3 Norte 15 Noroeste 0 -- -- 73
2019-08-12 01:00:00 13.3 12 Noroeste 22 Noroeste 0 -- -- 68
2019-08-12 00:00:00 13.5 13 Noroeste 20 Noroeste 0 -- -- 67
2019-08-11 23:00:00 14.8 12 Noroeste 21 Noroeste 0 -- -- 62
2019-08-11 22:00:00 16.3 14 Noroeste 36 Noroeste 0 -- -- 56
2019-08-11 21:00:00 18.9 18 Noroeste 32 Oeste 0 -- -- 47
2019-08-11 20:00:00 20.9 21 Noroeste 34 Oeste 0 -- -- 39
2019-08-11 19:00:00 21.4 18 Noroeste 36 Noroeste 0 -- -- 35
2019-08-11 18:00:00 22.4 18 Noroeste 33 Noroeste 0 -- -- 35
2019-08-11 17:00:00 22.7 18 Oeste 48 Oeste 0 -- -- 34
2019-08-11 16:00:00 21.9 16 Noroeste 32 Noroeste 0 -- -- 38
2019-08-11 15:00:00 20.7 17 Noroeste 32 Noroeste 0 -- -- 42
2019-08-11 14:00:00 19.4 8 Noroeste 27 Noroeste 0 -- -- 47
2019-08-11 13:00:00 18.2 12 Noroeste 26 Noroeste 0 -- -- 54
2019-08-11 12:00:00 15.9 12 Noroeste 22 Noroeste 0 -- -- 67
2019-08-11 11:00:00 14.6 12 Noroeste 24 Noroeste 0 -- -- 78
2019-08-11 10:00:00 13.5 16 Oeste 27 Oeste 0 -- -- 88
2019-08-11 09:00:00 12.4 11 Oeste 18 Oeste 0 -- -- 91
2019-08-11 08:00:00 11.8 10 Oeste 18 Oeste 0 -- -- 91
2019-08-11 07:00:00 12.4 11 Oeste 20 Oeste 0 -- -- 91
2019-08-11 06:00:00 13 7 Oeste 13 Oeste 0 -- -- 92
2019-08-11 05:00:00 13.2 4 Oeste 7 Oeste 0 -- -- 91
2019-08-11 04:00:00 14.2 0 Calma 14 Noroeste 0.2 -- -- 88
2019-08-11 03:00:00 14.9 6 Sudoeste 12 Oeste 1 -- -- 84
2019-08-11 02:00:00 16.3 8 Oeste 17 Noroeste 0 -- -- 68
2019-08-11 01:00:00 16.7 12 Noroeste 26 Oeste 0 -- -- 66
2019-08-11 00:00:00 17.3 11 Noroeste 24 Noroeste 0 -- -- 65
2019-08-10 23:00:00 18.4 16 Noroeste 26 Oeste 0 -- -- 61
2019-08-10 22:00:00 19.9 13 Noroeste 28 Noroeste 0 -- -- 50
2019-08-10 21:00:00 22.8 9 Noroeste 23 Noroeste 0 -- -- 38
2019-08-10 20:00:00 24.6 12 Noroeste 24 Oeste 0 -- -- 36
2019-08-10 19:00:00 25.5 11 Noroeste 23 Noroeste 0 -- -- 33
2019-08-10 18:00:00 25.7 13 Noroeste 25 Noroeste 0 -- -- 32
2019-08-10 17:00:00 25.3 13 Oeste 23 Noroeste 0 -- -- 34
2019-08-10 16:00:00 24.4 10 Oeste 25 Noroeste 0 -- -- 36
2019-08-10 15:00:00 23.1 7 Oeste 17 Noroeste 0 -- -- 40
2019-08-10 14:00:00 21.5 7 Nordeste 18 Este 0 -- -- 46
2019-08-10 13:00:00 20.7 9 Noroeste 19 Noroeste 0 -- -- 50
2019-08-10 12:00:00 19.6 6 Noroeste 14 Oeste 0 -- -- 54
2019-08-10 11:00:00 17.7 8 Nordeste 13 Norte 0 -- -- 62
2019-08-10 10:00:00 16.1 6 Norte 11 Norte 0 -- -- 76
2019-08-10 09:00:00 14.6 2 Noroeste 4 Oeste 0 -- -- 85
2019-08-10 08:00:00 13.6 0 Calma 5 Oeste 0 -- -- 88
2019-08-10 07:00:00 13.8 4 Oeste 6 Oeste 0 -- -- 87
2019-08-10 06:00:00 13.3 5 Sudoeste 8 Sudoeste 0 -- -- 89
2019-08-10 05:00:00 13.8 4 Sudoeste 9 Oeste 0 -- -- 85
2019-08-10 04:00:00 13.7 7 Oeste 10 Sudoeste 0 -- -- 88
2019-08-10 03:00:00 11.6 0 Calma 7 Oeste 0 -- -- 89
2019-08-10 02:00:00 12.1 0 Calma 5 Oeste 0 -- -- 88
2019-08-10 01:00:00 13.2 4 Este 6 Noroeste 0 -- -- 82
2019-08-10 00:00:00 15.3 4 Noroeste 14 Noroeste 0 -- -- 75
2019-08-09 23:00:00 16.8 5 Oeste 18 Noroeste 0 -- -- 69
2019-08-09 22:00:00 18.7 11 Oeste 24 Oeste 0 -- -- 60
2019-08-09 21:00:00 20.9 21 Oeste 31 Noroeste 0 -- -- 53
2019-08-09 20:00:00 23.1 18 Oeste 33 Oeste 0 -- -- 46
2019-08-09 19:00:00 24.1 13 Oeste 32 Oeste 0 -- -- 44
2019-08-09 18:00:00 24.3 21 Oeste 37 Oeste 0 -- -- 43
2019-08-09 17:00:00 24.1 18 Oeste 36 Oeste 0 -- -- 46
2019-08-09 16:00:00 22.6 22 Oeste 40 Oeste 0 -- -- 50
2019-08-09 15:00:00 22.5 19 Oeste 36 Oeste 0 -- -- 50
2019-08-09 14:00:00 20.8 22 Oeste 36 Oeste 0 -- -- 61
2019-08-09 13:00:00 18.6 19 Oeste 32 Oeste 0 -- -- 77
2019-08-09 12:00:00 17.6 19 Oeste 31 Oeste 0 -- -- 82
2019-08-09 11:00:00 16.1 15 Oeste 30 Oeste 0.2 -- -- 93
2019-08-09 10:00:00 15.7 18 Oeste 33 Oeste 0 -- -- 93
2019-08-09 09:00:00 16.3 9 Oeste 28 Oeste 0 -- -- 95
2019-08-09 08:00:00 17.4 17 Oeste 43 Sudoeste 0.4 -- -- 93
2019-08-09 07:00:00 20 20 Sudoeste 40 Sudoeste 0 -- -- 84
2019-08-09 06:00:00 19.7 23 Sudoeste 39 Sudoeste 0 -- -- 85
2019-08-09 05:00:00 19.2 18 Sur 38 Sur 0 -- -- 85
2019-08-09 04:00:00 19.8 21 Sudoeste 36 Sudoeste 0 -- -- 83
2019-08-09 03:00:00 19.5 13 Sudoeste 28 Sudoeste 0 -- -- 80
2019-08-09 02:00:00 20 8 Sur 19 Sudoeste 0 -- -- 75
2019-08-09 01:00:00 20.7 7 Sur 20 Sur 0 -- -- 72
2019-08-09 00:00:00 21.7 11 Sudoeste 22 Sudoeste 0 -- -- 67
2019-08-08 23:00:00 22.6 11 Sudoeste 21 Sudoeste 0 -- -- 63
2019-08-08 22:00:00 23.6 13 Sudoeste 32 Sudoeste 0 -- -- 58
2019-08-08 21:00:00 24.9 19 Sudoeste 36 Oeste 0 -- -- 54
2019-08-08 20:00:00 26.2 21 Sudoeste 37 Sudoeste 0 -- -- 51
2019-08-08 19:00:00 27.3 24 Sudoeste 44 Sudoeste 0 -- -- 48
2019-08-08 18:00:00 27.9 24 Sudoeste 49 Sudoeste 0 -- -- 47
2019-08-08 17:00:00 28 29 Sudoeste 47 Sudoeste 0 -- -- 46
2019-08-08 16:00:00 27.9 23 Sudoeste 43 Sur 0 -- -- 50
2019-08-08 15:00:00 27.3 25 Sudoeste 46 Sudoeste 0 -- -- 51
2019-08-08 14:00:00 25.8 27 Sudoeste 46 Sudoeste 0 -- -- 57
2019-08-08 13:00:00 24.8 23 Sudoeste 38 Sur 0 -- -- 61
2019-08-08 12:00:00 23.6 18 Sudoeste 35 Sudoeste 0 -- -- 67
2019-08-08 11:00:00 22.7 13 Sudoeste 31 Sur 0 -- -- 71
2019-08-08 10:00:00 21.6 19 Sudoeste 30 Sudoeste 0 -- -- 76
2019-08-08 09:00:00 20 14 Sur 22 Sur 0 -- -- 77
2019-08-08 08:00:00 19.4 10 Sur 24 Sudoeste 0 -- -- 76
2019-08-08 07:00:00 19.3 12 Sur 22 Sudoeste 0 -- -- 74
2019-08-08 06:00:00 19.4 12 Sur 24 Sur 0 -- -- 72
2019-08-08 05:00:00 19.5 12 Sur 21 Sudoeste 0 -- -- 71
2019-08-08 04:00:00 19.6 10 Sudoeste 21 Sudoeste 0 -- -- 69
2019-08-08 03:00:00 19.5 9 Sur 19 Sudoeste 0 -- -- 67
2019-08-08 02:00:00 20.3 9 Sudoeste 20 Sudoeste 0 -- -- 64
2019-08-08 01:00:00 20.6 10 Sudoeste 22 Sudoeste 0 -- -- 63
2019-08-08 00:00:00 19.2 4 Sur 8 Sudeste 0 -- -- 69
2019-08-07 23:00:00 21 4 Oeste 21 Oeste 0 -- -- 61
2019-08-07 22:00:00 22.1 15 Oeste 22 Oeste 0 -- -- 56
2019-08-07 21:00:00 23.6 15 Oeste 27 Oeste 0 -- -- 55
2019-08-07 20:00:00 25 12 Oeste 23 Sudoeste 0 -- -- 48
2019-08-07 19:00:00 24.9 10 Oeste 26 Sudoeste 0 -- -- 50
2019-08-07 18:00:00 24.7 9 Oeste 32 Sudoeste 0 -- -- 49
2019-08-07 17:00:00 23.9 9 Oeste 23 Sudoeste 0 -- -- 51
2019-08-07 16:00:00 23.5 14 Sudoeste 23 Sudoeste 0 -- -- 49
2019-08-07 15:00:00 22.9 12 Oeste 22 Oeste 0 -- -- 49
2019-08-07 14:00:00 22.5 11 Oeste 19 Oeste 0 -- -- 54
2019-08-07 13:00:00 21.6 11 Sudoeste 17 Sudoeste 0 -- -- 61
2019-08-07 12:00:00 20.4 9 Oeste 17 Sudoeste 0 -- -- 68
2019-08-07 11:00:00 18.9 6 Sudoeste 12 Sudoeste 0 -- -- 78
2019-08-07 10:00:00 17.5 6 Sudoeste 14 Sudoeste 0 -- -- 85
2019-08-07 09:00:00 16.5 7 Sudoeste 12 Sudoeste 0 -- -- 91
2019-08-07 08:00:00 15.7 3 Sur 12 Oeste 0 -- -- 92
2019-08-07 07:00:00 15.5 6 Oeste 10 Oeste 0 -- -- 93
2019-08-07 06:00:00 16 6 Noroeste 18 Oeste 0 -- -- 91
2019-08-07 05:00:00 16.5 8 Oeste 19 Oeste 0 -- -- 89
2019-08-07 04:00:00 17.7 5 Oeste 10 Oeste 0 -- -- 83
2019-08-07 03:00:00 18.8 5 Oeste 13 Oeste 0 -- -- 79
2019-08-07 02:00:00 19.4 4 Oeste 15 Oeste 0 -- -- 77
2019-08-07 01:00:00 20.1 3 Oeste 9 Oeste 0 -- -- 70
2019-08-07 00:00:00 20.5 5 Oeste 14 Noroeste 0 -- -- 67
2019-08-06 23:00:00 21 10 Oeste 17 Oeste 0 -- -- 63
2019-08-06 22:00:00 21.7 10 Oeste 24 Noroeste 0 -- -- 63
2019-08-06 21:00:00 22.9 14 Noroeste 32 Noroeste 0 -- -- 59
2019-08-06 20:00:00 24.4 18 Noroeste 33 Noroeste 0 -- -- 56
2019-08-06 19:00:00 27 19 Noroeste 34 Noroeste 0 -- -- 48
2019-08-06 18:00:00 28.7 21 Oeste 35 Oeste 0 -- -- 37
2019-08-06 17:00:00 29.9 16 Noroeste 27 Noroeste 0 -- -- 28
2019-08-06 16:00:00 30 15 Oeste 32 Oeste 0 -- -- 31
2019-08-06 15:00:00 29 9 Oeste 25 Noroeste 0 -- -- 38
2019-08-06 14:00:00 28.4 9 Oeste 19 Oeste 0 -- -- 36
2019-08-06 13:00:00 26.2 6 Oeste 17 Oeste 0 -- -- 44
2019-08-06 12:00:00 24.7 10 Oeste 20 Oeste 0 -- -- 53
2019-08-06 11:00:00 22.2 7 Noroeste 13 Noroeste 0 -- -- 63
2019-08-06 10:00:00 19.6 3 Sudoeste 8 Oeste 0 -- -- 73
2019-08-06 09:00:00 16.2 3 Sudoeste 5 Sudoeste 0 -- -- 86
2019-08-06 08:00:00 13.8 0 Calma 8 Sur 0 -- -- 89
2019-08-06 07:00:00 14.2 3 Sudeste 13 Sur 0 -- -- 89
2019-08-06 06:00:00 13.4 0 Calma 5 Oeste 0 -- -- 88
2019-08-06 05:00:00 14.6 0 Calma 6 Sudoeste 0 -- -- 82
2019-08-06 04:00:00 16.9 6 Sudoeste 11 Sudoeste 0 -- -- 79
2019-08-06 03:00:00 17.3 6 Sudoeste 9 Sudoeste 0 -- -- 76
2019-08-06 02:00:00 18.7 4 Oeste 18 Oeste 0 -- -- 69
2019-08-06 01:00:00 20.2 8 Oeste 19 Oeste 0 -- -- 62
2019-08-06 00:00:00 21.7 5 Noroeste 22 Noroeste 0 -- -- 53
2019-08-05 23:00:00 23.6 15 Noroeste 24 Oeste 0 -- -- 45
2019-08-05 22:00:00 25.6 10 Noroeste 21 Noroeste 0 -- -- 40
2019-08-05 21:00:00 28.6 14 Noroeste 26 Noroeste 0 -- -- 34
2019-08-05 20:00:00 30.6 14 Noroeste 24 Noroeste 0 -- -- 30
2019-08-05 19:00:00 31.2 13 Noroeste 25 Noroeste 0 -- -- 32
2019-08-05 18:00:00 31 12 Noroeste 28 Oeste 0 -- -- 26
2019-08-05 17:00:00 30.8 11 Noroeste 27 Noroeste 0 -- -- 27
2019-08-05 16:00:00 29.9 9 Noroeste 22 Oeste 0 -- -- 33
2019-08-05 15:00:00 29.1 12 Oeste 19 Noroeste 0 -- -- 35
2019-08-05 14:00:00 27.5 5 Noroeste 15 Norte 0 -- -- 44
2019-08-05 13:00:00 25.3 5 Sudoeste 14 Oeste 0 -- -- 52
2019-08-05 12:00:00 23.1 5 Norte 12 Noroeste 0 -- -- 60
2019-08-05 11:00:00 20.7 5 Nordeste 12 Nordeste 0 -- -- 68
2019-08-05 10:00:00 18.2 3 Norte 6 Noroeste 0 -- -- 77
2019-08-05 09:00:00 15.7 3 Sudoeste 5 Sudoeste 0 -- -- 86
2019-08-05 08:00:00 12 3 Sur 4 Sur 0 -- -- 94
2019-08-05 07:00:00 12.1 0 Calma 4 Sudeste 0 -- -- 92
2019-08-05 06:00:00 13 0 Calma 7 Sudoeste 0 -- -- 90
2019-08-05 05:00:00 13.6 5 Oeste 6 Sudoeste 0 -- -- 92
2019-08-05 04:00:00 15.3 3 Sudoeste 7 Sudoeste 0 -- -- 85
2019-08-05 03:00:00 16 4 Sudoeste 13 Sudoeste 0 -- -- 84
2019-08-05 02:00:00 17 8 Sudoeste 11 Sudoeste 0 -- -- 82
2019-08-05 01:00:00 18.2 6 Oeste 17 Oeste 0 -- -- 78
2019-08-05 00:00:00 19.8 9 Oeste 21 Oeste 0 -- -- 72
2019-08-04 23:00:00 21.9 12 Oeste 24 Oeste 0 -- -- 62
2019-08-04 22:00:00 24.2 14 Noroeste 27 Oeste 0 -- -- 51
2019-08-04 21:00:00 27.5 18 Noroeste 29 Noroeste 0 -- -- 43
2019-08-04 20:00:00 29.9 18 Noroeste 32 Noroeste 0 -- -- 36
2019-08-04 19:00:00 31.3 17 Oeste 28 Oeste 0 -- -- 30
2019-08-04 18:00:00 31.4 13 Noroeste 33 Noroeste 0 -- -- 30
2019-08-04 17:00:00 31.2 15 Noroeste 30 Oeste 0 -- -- 29
2019-08-04 16:00:00 30.8 13 Noroeste 31 Oeste 0 -- -- 30
2019-08-04 15:00:00 29.4 11 Oeste 27 Sudoeste 0 -- -- 36
2019-08-04 14:00:00 27.6 11 Oeste 20 Oeste 0 -- -- 43
2019-08-04 13:00:00 25.6 4 Noroeste 14 Noroeste 0 -- -- 49
2019-08-04 12:00:00 23.4 6 Oeste 13 Oeste 0 -- -- 58
2019-08-04 11:00:00 20.8 6 Oeste 13 Noroeste 0 -- -- 69
2019-08-04 10:00:00 18.3 7 Oeste 15 Noroeste 0 -- -- 78
2019-08-04 09:00:00 16.6 4 Noroeste 8 Oeste 0 -- -- 86
2019-08-04 08:00:00 14.6 4 Oeste 9 Sur 0 -- -- 92
2019-08-04 07:00:00 14 6 Sur 9 Sur 0 -- -- 91
2019-08-04 06:00:00 14.5 2 Sur 9 Sudoeste 0 -- -- 87
2019-08-04 05:00:00 15.4 3 Sur 12 Oeste 0 -- -- 84
2019-08-04 04:00:00 17 6 Sudoeste 15 Oeste 0 -- -- 80
2019-08-04 03:00:00 17.7 7 Oeste 18 Oeste 0 -- -- 77
2019-08-04 02:00:00 18.8 9 Oeste 16 Oeste 0 -- -- 72
2019-08-04 01:00:00 20.1 10 Oeste 20 Oeste 0 -- -- 67
2019-08-04 00:00:00 21.5 11 Oeste 20 Oeste 0 -- -- 56
2019-08-03 23:00:00 23.3 14 Noroeste 22 Noroeste 0 -- -- 45
2019-08-03 22:00:00 25.2 15 Noroeste 29 Noroeste 0 -- -- 42
2019-08-03 21:00:00 28.5 19 Noroeste 33 Noroeste 0 -- -- 34
2019-08-03 20:00:00 30.8 20 Noroeste 33 Oeste 0 -- -- 32
2019-08-03 19:00:00 31.9 13 Oeste 32 Oeste 0 -- -- 34
2019-08-03 18:00:00 32.4 11 Oeste 28 Oeste 0 -- -- 28
2019-08-03 17:00:00 31.7 7 Oeste 24 Noroeste 0 -- -- 30
2019-08-03 16:00:00 31.5 7 Oeste 25 Oeste 0 -- -- 29
2019-08-03 15:00:00 30.2 10 Oeste 22 Oeste 0 -- -- 32
2019-08-03 14:00:00 28.7 8 Noroeste 20 Noroeste 0 -- -- 39
2019-08-03 13:00:00 27.3 8 Oeste 15 Oeste 0 -- -- 44
2019-08-03 12:00:00 25.2 5 Noroeste 17 Sudeste 0 -- -- 49
2019-08-03 11:00:00 23 3 Norte 10 Nordeste 0 -- -- 56
2019-08-03 10:00:00 20.7 3 Norte 10 Noroeste 0 -- -- 63
2019-08-03 09:00:00 18.1 3 Sur 4 Sur 0 -- -- 77
2019-08-03 08:00:00 13.8 0 Calma 4 Oeste 0 -- -- 89
2019-08-03 07:00:00 13.6 2 Sudoeste 5 Sur 0 -- -- 85
2019-08-03 06:00:00 15.2 3 Sur 10 Sur 0 -- -- 84
2019-08-03 05:00:00 15 5 Sur 8 Sur 0 -- -- 85
2019-08-03 04:00:00 16.3 2 Sur 9 Oeste 0 -- -- 77
2019-08-03 03:00:00 17 4 Sudoeste 8 Sudoeste 0 -- -- 75
2019-08-03 02:00:00 19.4 3 Oeste 14 Oeste 0 -- -- 70
2019-08-03 01:00:00 20.8 5 Oeste 17 Noroeste 0 -- -- 62
2019-08-03 00:00:00 22.7 10 Noroeste 16 Noroeste 0 -- -- 52
2019-08-02 23:00:00 21.3 6 Oeste 14 Oeste 0 -- -- 41
2019-08-02 22:00:00 24.1 0 Calma 12 Noroeste 0 -- -- 36
2019-08-02 21:00:00 30.2 9 Noroeste 16 Noroeste 0 -- -- 25
2019-08-02 20:00:00 31.5 5 Norte 19 Noroeste 0 -- -- 25
2019-08-02 19:00:00 31.7 9 Noroeste 21 Noroeste 0 -- -- 26
2019-08-02 18:00:00 31.4 11 Noroeste 20 Norte 0 -- -- 30
2019-08-02 17:00:00 31.2 4 Noroeste 19 Noroeste 0 -- -- 30
2019-08-02 16:00:00 30.2 6 Sudoeste 19 Noroeste 0 -- -- 31
2019-08-02 15:00:00 29.3 8 Noroeste 16 Este 0 -- -- 36
2019-08-02 14:00:00 27.6 6 Sudoeste 15 Noroeste 0 -- -- 42
2019-08-02 13:00:00 25.5 6 Nordeste 14 Norte 0 -- -- 50
2019-08-02 12:00:00 23 7 Norte 14 Norte 0 -- -- 57
2019-08-02 11:00:00 20.6 5 Norte 12 Nordeste 0 -- -- 65
2019-08-02 10:00:00 18.3 5 Este 10 Nordeste 0 -- -- 71
2019-08-02 09:00:00 15 2 Norte 8 Norte 0 -- -- 78
2019-08-02 08:00:00 10.7 0 Calma 4 Este 0 -- -- 90
2019-08-02 07:00:00 10.2 2 Este 6 Este 0 -- -- 88
2019-08-02 06:00:00 11 3 Este 6 Este 0 -- -- 86
2019-08-02 05:00:00 12.1 0 Calma 5 Sudoeste 0 -- -- 81
2019-08-02 04:00:00 13.4 3 Sur 9 Sudoeste 0 -- -- 76
2019-08-02 03:00:00 14.6 3 Sur 8 Sudoeste 0 -- -- 72
2019-08-02 02:00:00 15.5 4 Sur 11 Sudoeste 0 -- -- 68
2019-08-02 01:00:00 17.6 3 Sudoeste 17 Oeste 0 -- -- 63
2019-08-02 00:00:00 19.3 13 Oeste 24 Oeste 0 -- -- 57
2019-08-01 23:00:00 21.5 14 Oeste 21 Noroeste 0 -- -- 47
2019-08-01 22:00:00 24.1 14 Noroeste 25 Noroeste 0 -- -- 38
2019-08-01 21:00:00 27.4 18 Noroeste 32 Oeste 0 -- -- 32
2019-08-01 20:00:00 29.6 13 Noroeste 27 Oeste 0 -- -- 27
2019-08-01 19:00:00 30.1 14 Noroeste 28 Oeste 0 -- -- 24
2019-08-01 18:00:00 30.4 10 Noroeste 40 Oeste 0 -- -- 22
2019-08-01 17:00:00 30.1 14 Oeste 29 Oeste 0 -- -- 24
2019-08-01 16:00:00 29.2 15 Sudoeste 28 Sudoeste 0 -- -- 24
2019-08-01 15:00:00 28.3 9 Sudoeste 24 Oeste 0 -- -- 30
2019-08-01 14:00:00 27 11 Sudoeste 22 Sudoeste 0 -- -- 35
2019-08-01 13:00:00 25.8 8 Nordeste 18 Nordeste 0 -- -- 40
2019-08-01 12:00:00 24.2 5 Norte 11 Norte 0 -- -- 46
2019-08-01 11:00:00 22 5 Nordeste 9 Norte 0 -- -- 54
2019-08-01 10:00:00 19.9 3 Este 9 Este 0 -- -- 58
2019-08-01 09:00:00 17.1 2 Nordeste 4 Nordeste 0 -- -- 69
2019-08-01 08:00:00 11.4 0 Calma 3 Sudeste 0 -- -- 81
2019-08-01 07:00:00 10.7 0 Calma 2 Sudeste 0 -- -- 81
2019-08-01 06:00:00 11.2 0 Calma 3 Norte 0 -- -- 76
2019-08-01 05:00:00 12.1 2 Noroeste 4 Noroeste 0 -- -- 71
2019-08-01 04:00:00 12.7 0 Calma 6 Oeste 0 -- -- 68
2019-08-01 03:00:00 12.9 0 Calma 2 Este 0 -- -- 66
2019-08-01 02:00:00 14 0 Calma 6 Oeste 0 -- -- 64
2019-08-01 01:00:00 15 0 Calma 2 Oeste 0 -- -- 61
2019-08-01 00:00:00 16.4 0 Calma 0 Calma 0 -- -- 57
2019-07-31 23:00:00 18.9 0 Calma 5 Nordeste 0 -- -- 51
2019-07-31 22:00:00 22.9 3 Nordeste 14 Norte 0 -- -- 40
2019-07-31 21:00:00 25 10 Norte 22 Norte 0 -- -- 37
2019-07-31 20:00:00 25.6 14 Norte 24 Norte 0 -- -- 36
2019-07-31 19:00:00 25.9 14 Norte 28 Noroeste 0 -- -- 37
2019-07-31 18:00:00 26.6 18 Norte 28 Norte 0 -- -- 36
2019-07-31 17:00:00 27.3 7 Noroeste 19 Oeste 0 -- -- 34
2019-07-31 16:00:00 26.9 5 Noroeste 19 Este 0 -- -- 34
2019-07-31 15:00:00 25.5 9 Este 24 Este 0 -- -- 40
2019-07-31 14:00:00 23.8 14 Nordeste 25 Este 0 -- -- 44
2019-07-31 13:00:00 22.2 16 Nordeste 28 Nordeste 0 -- -- 44
2019-07-31 12:00:00 20.2 15 Nordeste 28 Nordeste 0 -- -- 52
2019-07-31 11:00:00 17.4 13 Nordeste 24 Norte 0 -- -- 60
2019-07-31 10:00:00 15.9 15 Nordeste 25 Nordeste 0 -- -- 65
2019-07-31 09:00:00 13.7 15 Nordeste 26 Nordeste 0 -- -- 73
2019-07-31 08:00:00 11.7 9 Nordeste 18 Nordeste 0 -- -- 79
2019-07-31 07:00:00 11.9 9 Nordeste 18 Nordeste 0 -- -- 76
2019-07-31 06:00:00 12.6 9 Nordeste 17 Nordeste 0 -- -- 71
2019-07-31 05:00:00 13.3 11 Nordeste 18 Nordeste 0 -- -- 59
2019-07-31 04:00:00 13.1 6 Norte 11 Nordeste 0 -- -- 60
2019-07-31 03:00:00 13.3 4 Nordeste 6 Norte 0 -- -- 60
2019-07-31 02:00:00 13.6 3 Noroeste 5 Noroeste 0 -- -- 54
2019-07-31 01:00:00 14.8 3 Norte 7 Norte 0 -- -- 50
2019-07-31 00:00:00 16.6 4 Norte 9 Noroeste 0 -- -- 44
2019-07-30 23:00:00 17.8 4 Norte 10 Norte 0 -- -- 42
2019-07-30 22:00:00 20.4 6 Norte 15 Norte 0 -- -- 35
2019-07-30 21:00:00 24.2 7 Norte 33 Nordeste 0 -- -- 27
2019-07-30 20:00:00 25.2 12 Este 33 Este 0 -- -- 24
2019-07-30 19:00:00 25.2 13 Nordeste 23 Norte 0 -- -- 26
2019-07-30 18:00:00 25.1 12 Nordeste 24 Este 0 -- -- 25
2019-07-30 17:00:00 24.6 11 Nordeste 29 Nordeste 0 -- -- 26
2019-07-30 16:00:00 23.8 12 Nordeste 30 Norte 0 -- -- 29
2019-07-30 15:00:00 22.4 17 Nordeste 30 Norte 0 -- -- 33
2019-07-30 14:00:00 21 14 Nordeste 27 Norte 0 -- -- 36
2019-07-30 13:00:00 19.7 15 Nordeste 26 Este 0 -- -- 40
2019-07-30 12:00:00 17.7 13 Nordeste 27 Nordeste 0 -- -- 48
2019-07-30 11:00:00 15.8 12 Nordeste 21 Nordeste 0 -- -- 58
2019-07-30 10:00:00 13.3 7 Norte 14 Noroeste 0 -- -- 72
2019-07-30 09:00:00 11.4 7 Norte 12 Norte 0 -- -- 84
2019-07-30 08:00:00 8.7 2 Este 10 Noroeste 0 -- -- 91
2019-07-30 07:00:00 7.5 3 Norte 12 Noroeste 0 -- -- 85
2019-07-30 06:00:00 9.7 9 Noroeste 14 Norte 0 -- -- 87
2019-07-30 05:00:00 10.4 11 Noroeste 23 Noroeste 0 -- -- 83
2019-07-30 04:00:00 10.6 10 Noroeste 19 Norte 0 -- -- 79
2019-07-30 03:00:00 11.8 12 Noroeste 23 Noroeste 0 -- -- 72
2019-07-30 02:00:00 12.3 7 Noroeste 28 Noroeste 0 -- -- 66
2019-07-30 01:00:00 14.1 18 Noroeste 30 Norte 0 -- -- 60
2019-07-30 00:00:00 14.9 12 Noroeste 26 Noroeste 0 -- -- 59
2019-07-29 23:00:00 15.6 10 Noroeste 22 Oeste 0 -- -- 58
2019-07-29 22:00:00 17.7 15 Noroeste 28 Oeste 0 -- -- 51
2019-07-29 21:00:00 20.6 17 Noroeste 27 Noroeste 0 -- -- 41
2019-07-29 20:00:00 22.1 19 Noroeste 31 Noroeste 0 -- -- 35
2019-07-29 19:00:00 22.8 21 Noroeste 38 Noroeste 0 -- -- 35
2019-07-29 18:00:00 23.7 18 Noroeste 36 Noroeste 0 -- -- 34
2019-07-29 17:00:00 23.7 17 Noroeste 37 Oeste 0 -- -- 35
2019-07-29 16:00:00 23.4 17 Noroeste 35 Noroeste 0 -- -- 38
2019-07-29 15:00:00 22.6 18 Noroeste 32 Noroeste 0 -- -- 38
2019-07-29 14:00:00 21.8 16 Oeste 31 Oeste 0 -- -- 47
2019-07-29 13:00:00 20.9 16 Oeste 29 Oeste 0 -- -- 52
2019-07-29 12:00:00 18.2 12 Noroeste 24 Oeste 0 -- -- 64
2019-07-29 11:00:00 17.4 9 Oeste 19 Oeste 0 -- -- 67
2019-07-29 10:00:00 15.9 10 Oeste 15 Oeste 0 -- -- 70
2019-07-29 09:00:00 14.5 7 Sudoeste 14 Sur 0 -- -- 71
2019-07-29 08:00:00 12.1 7 Sur 13 Sur 0 -- -- 79
2019-07-29 07:00:00 10.3 5 Sur 10 Sudeste 0 -- -- 85
2019-07-29 06:00:00 10.8 5 Sur 10 Sur 0 -- -- 82
2019-07-29 05:00:00 12.3 4 Sur 14 Sudoeste 0 -- -- 79
2019-07-29 04:00:00 13.4 6 Sudoeste 14 Sudoeste 0 -- -- 77
2019-07-29 03:00:00 14.5 5 Oeste 12 Sudoeste 0 -- -- 71
2019-07-29 02:00:00 15.8 3 Oeste 22 Oeste 0 -- -- 66
2019-07-29 01:00:00 17.3 18 Oeste 29 Oeste 0 -- -- 63
2019-07-29 00:00:00 19.1 17 Oeste 27 Oeste 0 -- -- 59
2019-07-28 23:00:00 21.3 18 Oeste 28 Oeste 0 -- -- 57
2019-07-28 22:00:00 23.6 11 Noroeste 23 Oeste 0 -- -- 45
2019-07-28 21:00:00 26.9 15 Oeste 27 Oeste 0 -- -- 31
2019-07-28 20:00:00 28.1 11 Oeste 26 Noroeste 0 -- -- 30
2019-07-28 19:00:00 28 10 Oeste 27 Noroeste 0 -- -- 25
2019-07-28 18:00:00 28.1 6 Oeste 26 Oeste 0 -- -- 25
2019-07-28 17:00:00 27.4 12 Oeste 26 Sudoeste 0 -- -- 30
2019-07-28 16:00:00 26.2 6 Nordeste 24 Noroeste 0 -- -- 29
2019-07-28 15:00:00 26 11 Oeste 20 Noroeste 0 -- -- 32
2019-07-28 14:00:00 24.6 9 Noroeste 23 Este 0 -- -- 36
2019-07-28 13:00:00 23.3 5 Sur 14 Sudoeste 0 -- -- 42
2019-07-28 12:00:00 21.8 6 Sudeste 15 Este 0 -- -- 47
2019-07-28 11:00:00 20 9 Este 22 Nordeste 0 -- -- 52
2019-07-28 10:00:00 17.3 14 Este 26 Este 0 -- -- 62
2019-07-28 09:00:00 14.8 14 Este 25 Este 0 -- -- 72
2019-07-28 08:00:00 12.9 13 Este 23 Este 0 -- -- 79
2019-07-28 07:00:00 12.3 11 Este 16 Este 0 -- -- 80
2019-07-28 06:00:00 13 9 Este 16 Este 0 -- -- 79
2019-07-28 05:00:00 13.6 8 Nordeste 12 Este 0 -- -- 81
2019-07-28 04:00:00 12.7 7 Este 13 Este 0 -- -- 88
2019-07-28 03:00:00 13.7 0 Calma 9 Norte 0 -- -- 81
2019-07-28 02:00:00 14.2 2 Noroeste 9 Noroeste 0 -- -- 79
2019-07-28 01:00:00 15.3 5 Noroeste 12 Noroeste 0 -- -- 75
2019-07-28 00:00:00 16.8 5 Noroeste 13 Norte 0 -- -- 70
2019-07-27 23:00:00 18.4 9 Noroeste 21 Noroeste 0 -- -- 66
2019-07-26 12:00:00 -- -- -- -- -- -- -- -- --
2019-07-26 11:00:00 17.5 17 Noroeste 33 Noroeste 0 -- -- 62
2019-07-26 10:00:00 15.6 17 Noroeste 26 Noroeste 0 -- -- 71
2019-07-26 09:00:00 13.7 12 Oeste 18 Oeste 0 -- -- 82
2019-07-26 08:00:00 11.9 6 Oeste 13 Oeste 0 -- -- 89
2019-07-26 07:00:00 11.4 6 Oeste 12 Oeste 0 -- -- 89
2019-07-26 06:00:00 12.5 7 Noroeste 16 Oeste 0 -- -- 86
2019-07-26 05:00:00 14.3 9 Noroeste 21 Oeste 0 -- -- 84
2019-07-26 04:00:00 15.8 13 Noroeste 23 Oeste 0 -- -- 81
2019-07-26 03:00:00 16.2 11 Noroeste 25 Oeste 0 -- -- 80
2019-07-26 02:00:00 16.9 14 Noroeste 25 Noroeste 0 -- -- 80
2019-07-26 01:00:00 17.8 10 Noroeste 23 Noroeste 0 -- -- 80
2019-07-26 00:00:00 18.6 14 Noroeste 25 Noroeste 0 -- -- 78
2019-07-25 23:00:00 19.1 10 Noroeste 28 Noroeste 0 -- -- 79
2019-07-25 22:00:00 20.8 14 Noroeste 26 Noroeste 0 -- -- 75
2019-07-25 21:00:00 22.2 17 Noroeste 31 Oeste 0 -- -- 65
2019-07-25 20:00:00 24.4 17 Oeste 34 Oeste 0 -- -- 53
2019-07-25 19:00:00 26.3 22 Oeste 39 Oeste 0 -- -- 44
2019-07-25 18:00:00 29.1 18 Oeste 36 Sudoeste 0 -- -- 41
2019-07-25 17:00:00 29.5 15 Oeste 34 Oeste 0 -- -- 40
2019-07-25 16:00:00 29.3 15 Oeste 36 Sudoeste 0 -- -- 39
2019-07-25 15:00:00 28.4 20 Oeste 35 Oeste 0 -- -- 40
2019-07-25 14:00:00 28.7 24 Oeste 40 Oeste 0 -- -- 43
2019-07-25 13:00:00 27.5 14 Sudoeste 23 Sudoeste 0 -- -- 40
2019-07-25 12:00:00 25.3 9 Oeste 20 Oeste 0 -- -- 48
2019-07-25 11:00:00 23.6 9 Oeste 15 Oeste 0 -- -- 52
2019-07-25 10:00:00 22.8 9 Oeste 19 Oeste 0 -- -- 55
2019-07-25 09:00:00 19 5 Oeste 10 Oeste 0 -- -- 72
2019-07-25 08:00:00 13.7 3 Oeste 5 Oeste 0 -- -- 87
2019-07-25 07:00:00 12.8 0 Calma 5 Sudeste 0 -- -- 86
2019-07-25 06:00:00 14.1 0 Calma 7 Sudeste 0 -- -- 82
2019-07-25 05:00:00 14.7 2 Sudoeste 4 Sudoeste 0 -- -- 77
2019-07-25 04:00:00 17.4 4 Sur 12 Sudoeste 0 -- -- 66
2019-07-25 03:00:00 17.9 7 Sudoeste 12 Sudoeste 0 -- -- 64
2019-07-25 02:00:00 18.5 4 Sudeste 13 Oeste 0 -- -- 57
2019-07-25 01:00:00 21 9 Sudoeste 14 Oeste 0 -- -- 47
2019-07-25 00:00:00 22.4 6 Oeste 16 Oeste 0 -- -- 40
2019-07-24 23:00:00 24.1 13 Oeste 26 Oeste 0 -- -- 36
2019-07-24 22:00:00 26.2 13 Oeste 33 Oeste 0 -- -- 31
2019-07-24 21:00:00 29.2 22 Oeste 34 Oeste 0 -- -- 33
2019-07-24 20:00:00 32.6 14 Oeste 29 Sudoeste 0 -- -- 29
2019-07-24 19:00:00 33.3 16 Sur 35 Sudoeste 0 -- -- 27
2019-07-24 18:00:00 33.5 18 Sur 40 Sudoeste 0 -- -- 25
2019-07-24 17:00:00 33.4 20 Sur 34 Sudoeste 0 -- -- 27
2019-07-24 16:00:00 33 20 Sur 37 Sur 0 -- -- 28
2019-07-24 15:00:00 32.7 19 Sur 39 Sur 0 -- -- 29
2019-07-24 14:00:00 32.1 18 Sudoeste 38 Sur 0 -- -- 32
2019-07-24 13:00:00 30.9 17 Sur 29 Sur 0 -- -- 36
2019-07-24 12:00:00 29.2 15 Sudoeste 26 Sur 0 -- -- 41
2019-07-24 11:00:00 27 12 Sur 19 Sur 0 -- -- 48
2019-07-24 10:00:00 24 2 Nordeste 7 Sudeste 0 -- -- 65
2019-07-24 09:00:00 21.4 2 Este 4 Sudeste 0 -- -- 77
2019-07-24 08:00:00 17.4 0 Calma 8 Sur 0 -- -- 89
2019-07-24 07:00:00 16.4 4 Sur 8 Sur 0 -- -- 89
2019-07-24 06:00:00 16.8 3 Este 6 Noroeste 0 -- -- 86
2019-07-24 05:00:00 18.8 3 Noroeste 10 Sur 0 -- -- 79
2019-07-24 04:00:00 19.2 4 Sudoeste 8 Sur 0 -- -- 79
2019-07-24 03:00:00 20 5 Sur 13 Sur 0 -- -- 77
2019-07-24 02:00:00 20.2 9 Sur 13 Sur 0 -- -- 76
2019-07-24 01:00:00 20.1 4 Sur 11 Sudoeste 0 -- -- 73
2019-07-24 00:00:00 22.3 3 Oeste 14 Oeste 0 -- -- 64
2019-07-23 23:00:00 23 5 Noroeste 10 Oeste 0 -- -- 60
2019-07-23 22:00:00 24.8 5 Noroeste 14 Norte 0 -- -- 53
2019-07-23 21:00:00 26.8 10 Noroeste 24 Noroeste 0 -- -- 48
2019-07-23 20:00:00 30.1 18 Noroeste 37 Oeste 0 -- -- 39
2019-07-23 19:00:00 30.8 11 Sudoeste 28 Sur 0 -- -- 37
2019-07-23 18:00:00 32.9 15 Sur 33 Sur 0 -- -- 34
2019-07-23 17:00:00 32.8 15 Sur 33 Sur 0 -- -- 34
2019-07-23 16:00:00 32.1 18 Sudoeste 31 Sudoeste 0 -- -- 34
2019-07-23 15:00:00 32.2 21 Sudoeste 35 Sur 0 -- -- 32
2019-07-23 14:00:00 31.3 18 Sudoeste 37 Sudoeste 0 -- -- 35
2019-07-23 13:00:00 30.6 14 Sur 35 Sur 0 -- -- 39
2019-07-23 12:00:00 29.5 14 Sur 26 Sur 0 -- -- 40
2019-07-23 11:00:00 26.6 15 Sudeste 24 Sudeste 0 -- -- 48
2019-07-23 10:00:00 22.6 10 Sudeste 22 Sudeste 0 -- -- 67
2019-07-23 09:00:00 21 13 Este 19 Este 0 -- -- 75
2019-07-23 08:00:00 19.3 12 Este 22 Este 0 -- -- 82
2019-07-23 07:00:00 19.5 9 Norte 12 Noroeste 0.2 -- -- 82
2019-07-23 06:00:00 19.3 3 Oeste 9 Este 0.2 -- -- 86
2019-07-23 05:00:00 19.3 7 Sur 43 Sudoeste 1.4 -- -- 82
2019-07-23 04:00:00 20.8 14 Este 41 Sudoeste 1.6 -- -- 66
2019-07-23 03:00:00 23 10 Este 19 Este 0 -- -- 52
2019-07-23 02:00:00 24 11 Este 22 Este 0 -- -- 46
2019-07-23 01:00:00 25.5 14 Este 24 Este 0 -- -- 42
2019-07-23 00:00:00 25.7 13 Este 26 Este 0 -- -- 44
2019-07-22 23:00:00 24.8 12 Este 15 Este 0 -- -- 50
2019-07-22 22:00:00 26.6 7 Nordeste 25 Noroeste 0 -- -- 46
2019-07-22 21:00:00 28.5 6 Norte 16 Nordeste 0 -- -- 41
2019-07-22 20:00:00 30.4 12 Nordeste 26 Nordeste 0 -- -- 34
2019-07-22 19:00:00 33.2 13 Nordeste 32 Este 0 -- -- 32
2019-07-22 18:00:00 37 14 Oeste 28 Sudoeste 0 -- -- 22
2019-07-22 17:00:00 36.7 8 Sur 25 Sur 0 -- -- 25
2019-07-22 16:00:00 35.6 11 Sur 26 Sudoeste 0 -- -- 25
2019-07-22 15:00:00 35.3 10 Sudoeste 22 Oeste 0 -- -- 26
2019-07-22 14:00:00 33.9 9 Sudoeste 17 Sur 0 -- -- 29
2019-07-22 13:00:00 32.5 9 Sur 19 Sur 0 -- -- 32
2019-07-22 12:00:00 29.6 8 Sudoeste 15 Sudoeste 0 -- -- 37
2019-07-22 11:00:00 26.8 3 Oeste 8 Sudoeste 0 -- -- 43
2019-07-22 10:00:00 21.5 0 Calma 5 Sudeste 0 -- -- 58
2019-07-22 09:00:00 19 4 Sudeste 8 Sudeste 0 -- -- 64
2019-07-22 08:00:00 17.5 4 Sudeste 9 Sudeste 0 -- -- 67
2019-07-22 07:00:00 16.7 8 Sudeste 12 Este 0 -- -- 69
2019-07-22 06:00:00 16.2 0 Calma 4 Este 0 -- -- 73
2019-07-22 05:00:00 17.1 0 Calma 4 Nordeste 0 -- -- 67
2019-07-22 04:00:00 17.4 0 Calma 4 Sudeste 0 -- -- 65
2019-07-22 03:00:00 18 3 Sudeste 5 Sudeste 0 -- -- 64
2019-07-22 02:00:00 18.5 0 Calma 8 Este 0 -- -- 61
2019-07-22 01:00:00 19.2 2 Sudoeste 4 Sudoeste 0 -- -- 56
2019-07-22 00:00:00 21.2 3 Noroeste 6 Noroeste 0 -- -- 53
2019-07-21 23:00:00 22.6 0 Calma 5 Este 0 -- -- 45
2019-07-21 22:00:00 27 0 Calma 10 Norte 0 -- -- 35
2019-07-21 21:00:00 32 8 Norte 21 Noroeste 0 -- -- 26
2019-07-21 20:00:00 33.1 14 Noroeste 24 Noroeste 0 -- -- 27
2019-07-21 19:00:00 33.8 9 Norte 22 Noroeste 0 -- -- 23
2019-07-21 18:00:00 34.4 12 Noroeste 25 Oeste 0 -- -- 23
2019-07-21 17:00:00 33.1 8 Norte 23 Noroeste 0 -- -- 27
2019-07-21 16:00:00 32.8 7 Oeste 17 Oeste 0 -- -- 30
2019-07-21 15:00:00 31.3 6 Sudoeste 16 Oeste 0 -- -- 32
2019-07-21 14:00:00 29.9 8 Sudeste 19 Sudeste 0 -- -- 39
2019-07-21 13:00:00 27.7 7 Noroeste 16 Norte 0 -- -- 47
2019-07-21 12:00:00 25.5 7 Norte 17 Nordeste 0 -- -- 55
2019-07-21 11:00:00 22.9 6 Nordeste 16 Nordeste 0 -- -- 62
2019-07-21 10:00:00 20.7 5 Nordeste 15 Este 0 -- -- 70
2019-07-21 09:00:00 18 6 Nordeste 11 Nordeste 0 -- -- 81
2019-07-21 08:00:00 14.8 3 Norte 5 Nordeste 0 -- -- 87
2019-07-21 07:00:00 13.4 0 Calma 3 Nordeste 0 -- -- 91
2019-07-21 06:00:00 13.7 0 Calma 3 Este 0 -- -- 89
2019-07-21 05:00:00 14.5 2 Este 5 Este 0 -- -- 88
2019-07-21 04:00:00 15.2 0 Calma 2 Sur 0 -- -- 83
2019-07-21 03:00:00 17.6 2 Norte 8 Noroeste 0 -- -- 76
2019-07-21 02:00:00 17.3 2 Sur 6 Oeste 0 -- -- 71
2019-07-21 01:00:00 20.2 4 Oeste 12 Oeste 0 -- -- 64
2019-07-21 00:00:00 21.4 8 Oeste 16 Oeste 0 -- -- 62
2019-07-20 23:00:00 23.5 10 Noroeste 22 Noroeste 0 -- -- 57
2019-07-20 22:00:00 25.9 16 Noroeste 26 Noroeste 0 -- -- 49
2019-07-20 21:00:00 29.2 17 Noroeste 32 Noroeste 0 -- -- 39
2019-07-20 20:00:00 31.6 13 Noroeste 23 Noroeste 0 -- -- 33
2019-07-20 19:00:00 31.8 11 Noroeste 26 Noroeste 0 -- -- 30
2019-07-20 18:00:00 31.3 7 Norte 27 Noroeste 0 -- -- 30
2019-07-20 17:00:00 31.3 9 Oeste 23 Noroeste 0 -- -- 30
2019-07-20 16:00:00 30.6 12 Noroeste 26 Oeste 0 -- -- 30
2019-07-20 15:00:00 29.4 9 Noroeste 22 Noroeste 0 -- -- 33
2019-07-20 14:00:00 28.1 6 Norte 21 Oeste 0 -- -- 37
2019-07-20 13:00:00 26.7 11 Noroeste 21 Noroeste 0 -- -- 40
2019-07-20 12:00:00 25 10 Noroeste 20 Noroeste 0 -- -- 49
2019-07-20 11:00:00 23 11 Noroeste 19 Oeste 0 -- -- 57
2019-07-20 10:00:00 20.8 13 Noroeste 17 Noroeste 0 -- -- 65
2019-07-20 09:00:00 18.1 8 Oeste 12 Oeste 0 -- -- 73
2019-07-20 08:00:00 13.6 2 Oeste 5 Oeste 0 -- -- 87
2019-07-20 07:00:00 12.7 0 Calma 5 Oeste 0 -- -- 85
2019-07-20 06:00:00 13.5 0 Calma 6 Oeste 0 -- -- 83
2019-07-20 05:00:00 14.4 0 Calma 4 Sur 0 -- -- 79
2019-07-20 04:00:00 16.5 2 Sur 7 Oeste 0 -- -- 73
2019-07-20 03:00:00 18.7 6 Oeste 14 Sudoeste 0 -- -- 66
2019-07-20 02:00:00 19.8 2 Oeste 13 Oeste 0 -- -- 63
2019-07-20 01:00:00 21.3 9 Oeste 19 Oeste 0 -- -- 59
2019-07-20 00:00:00 23 9 Oeste 15 Oeste 0 -- -- 50
2019-07-19 23:00:00 24.5 8 Noroeste 22 Noroeste 0 -- -- 45
2019-07-19 22:00:00 27.3 14 Noroeste 31 Noroeste 0 -- -- 41
2019-07-19 21:00:00 30 19 Noroeste 33 Noroeste 0 -- -- 39
2019-07-19 20:00:00 32 19 Noroeste 31 Noroeste 0 -- -- 32
2019-07-19 19:00:00 33.2 14 Oeste 26 Noroeste 0 -- -- 28
2019-07-19 18:00:00 32.6 6 Oeste 21 Noroeste 0 -- -- 29
2019-07-19 17:00:00 33 8 Oeste 23 Sudoeste 0 -- -- 28
2019-07-19 16:00:00 32.3 7 Sudoeste 26 Oeste 0 -- -- 29
2019-07-19 15:00:00 32.4 9 Noroeste 19 Oeste 0 -- -- 28
2019-07-19 14:00:00 31.3 10 Oeste 23 Oeste 0 -- -- 29
2019-07-19 13:00:00 29.7 8 Noroeste 13 Norte 0 -- -- 32
2019-07-19 12:00:00 27.1 4 Norte 10 Sudeste 0 -- -- 37
2019-07-19 11:00:00 24.7 5 Este 13 Este 0 -- -- 43
2019-07-19 10:00:00 21.6 8 Este 12 Este 0 -- -- 53
2019-07-19 09:00:00 19.3 5 Este 9 Este 0 -- -- 58
2019-07-19 08:00:00 15.6 0 Calma 7 Este 0 -- -- 76
2019-07-19 07:00:00 13.5 2 Este 4 Este 0 -- -- 80
2019-07-19 06:00:00 14.2 0 Calma 3 Nordeste 0 -- -- 77
2019-07-19 05:00:00 15 0 Calma 5 Este 0 -- -- 75
2019-07-19 04:00:00 16 0 Calma 5 Nordeste 0 -- -- 71
2019-07-19 03:00:00 16.3 0 Calma 6 Este 0 -- -- 71
2019-07-19 02:00:00 17.3 4 Este 7 Este 0 -- -- 66
2019-07-19 01:00:00 18.1 0 Calma 4 Oeste 0 -- -- 61
2019-07-19 00:00:00 20.1 2 Norte 5 Norte 0 -- -- 49
2019-07-18 23:00:00 21.6 3 Norte 6 Norte 0 -- -- 41
2019-07-18 22:00:00 27 4 Norte 15 Noroeste 0 -- -- 31
2019-07-18 21:00:00 30 11 Noroeste 20 Noroeste 0 -- -- 28
2019-07-18 20:00:00 31.3 10 Noroeste 19 Noroeste 0 -- -- 26
2019-07-18 19:00:00 31.6 10 Noroeste 24 Noroeste 0 -- -- 28
2019-07-18 18:00:00 31.3 13 Noroeste 21 Norte 0 -- -- 32
2019-07-18 17:00:00 31 7 Norte 17 Este 0 -- -- 33
2019-07-18 16:00:00 30.4 8 Norte 19 Norte 0 -- -- 33
2019-07-18 15:00:00 29.5 6 Noroeste 27 Nordeste 0 -- -- 38
2019-07-18 14:00:00 27.5 6 Nordeste 19 Nordeste 0 -- -- 42
2019-07-18 13:00:00 25.4 9 Este 26 Este 0 -- -- 49
2019-07-18 12:00:00 23.2 12 Este 23 Nordeste 0 -- -- 54
2019-07-18 11:00:00 21 9 Nordeste 22 Este 0 -- -- 61
2019-07-18 10:00:00 18.9 9 Nordeste 17 Nordeste 0 -- -- 69
2019-07-18 09:00:00 16.8 8 Nordeste 17 Nordeste 0 -- -- 78
2019-07-18 08:00:00 14.7 8 Nordeste 14 Nordeste 0 -- -- 87
2019-07-18 07:00:00 13 2 Norte 3 Norte 0 -- -- 90
2019-07-18 06:00:00 14 0 Calma 4 Norte 0 -- -- 88
2019-07-18 05:00:00 15 4 Noroeste 9 Oeste 0 -- -- 88
2019-07-18 04:00:00 15.3 3 Oeste 8 Sudoeste 0 -- -- 86
2019-07-18 03:00:00 16.8 3 Sur 11 Oeste 0 -- -- 83
2019-07-18 02:00:00 18.6 6 Oeste 14 Oeste 0 -- -- 80
2019-07-18 01:00:00 19.9 7 Sudoeste 17 Oeste 0 -- -- 77
2019-07-18 00:00:00 21.7 9 Oeste 19 Noroeste 0 -- -- 59